createdAt,value
2022-07-29T00:01:19.337Z,4.63
2022-07-29T00:03:47.890Z,7.35
2022-07-29T00:06:16.244Z,4.65
2022-07-29T00:08:44.301Z,6.28
2022-07-29T00:11:13.908Z,4.68
2022-07-29T00:13:41.911Z,2.40
2022-07-29T00:16:10.002Z,5.65
2022-07-29T00:18:37.989Z,3.70
2022-07-29T00:21:05.957Z,4.15
2022-07-29T00:23:36.844Z,2.53
2022-07-29T00:26:05.118Z,6.25
2022-07-29T00:28:34.537Z,4.38
2022-07-29T00:31:02.854Z,4.50
2022-07-29T00:33:31.096Z,3.53
2022-07-29T00:35:58.060Z,4.50
2022-07-29T00:38:26.010Z,3.72
2022-07-29T00:40:55.154Z,3.85
2022-07-29T00:43:23.213Z,3.22
2022-07-29T00:45:52.668Z,4.20
2022-07-29T00:48:20.670Z,4.35
2022-07-29T00:50:48.795Z,2.55
2022-07-29T00:53:16.796Z,7.30
2022-07-29T00:55:44.830Z,2.80
2022-07-29T00:58:14.561Z,3.55
2022-07-29T01:00:45.465Z,3.83
2022-07-29T01:03:15.084Z,3.40
2022-07-29T01:05:48.200Z,3.15
2022-07-29T01:08:20.812Z,4.70
2022-07-29T01:10:49.908Z,6.82
2022-07-29T01:13:18.970Z,4.32
2022-07-29T01:15:50.762Z,3.92
2022-07-29T01:18:26.223Z,4.60
2022-07-29T01:21:10.147Z,4.07
2022-07-29T01:24:00.989Z,4.38
2022-07-29T01:26:44.094Z,4.78
2022-07-29T01:29:36.052Z,4.68
2022-07-29T01:32:18.134Z,5.30
2022-07-29T01:35:00.483Z,6.25
2022-07-29T01:37:31.666Z,5.63
2022-07-29T01:40:03.529Z,3.63
2022-07-29T01:42:37.595Z,3.60
2022-07-29T01:45:14.525Z,6.53
2022-07-29T01:47:48.749Z,5.43
2022-07-29T01:50:19.783Z,4.28
2022-07-29T01:52:56.787Z,4.68
2022-07-29T01:55:29.178Z,8.32
2022-07-29T01:57:59.997Z,5.28
2022-07-29T02:00:30.604Z,4.03
2022-07-29T02:03:00.813Z,5.18
2022-07-29T02:05:31.585Z,2.97
2022-07-29T02:08:01.246Z,5.53
2022-07-29T02:10:33.406Z,3.13
2022-07-29T02:13:02.776Z,6.60
2022-07-29T02:15:35.886Z,3.65
2022-07-29T02:18:08.243Z,5.50
2022-07-29T02:20:37.039Z,6.25
2022-07-29T02:23:05.497Z,4.15
2022-07-29T02:25:37.109Z,7.07
2022-07-29T02:28:07.418Z,6.45
2022-07-29T02:30:42.083Z,7.55
2022-07-29T02:33:14.189Z,2.63
2022-07-29T02:35:43.793Z,4.50
2022-07-29T02:38:33.879Z,5.50
2022-07-29T02:41:05.440Z,5.45
2022-07-29T02:43:35.930Z,6.38
2022-07-29T02:46:12.679Z,4.22
2022-07-29T02:49:01.563Z,4.70
2022-07-29T02:51:43.538Z,4.82
2022-07-29T02:54:17.712Z,4.68
2022-07-29T02:56:47.530Z,3.97
2022-07-29T02:59:20.217Z,3.92
2022-07-29T03:01:50.564Z,6.10
2022-07-29T03:04:21.471Z,5.22
2022-07-29T03:06:51.797Z,5.38
2022-07-29T03:09:20.682Z,4.93
2022-07-29T03:11:50.154Z,6.38
2022-07-29T03:14:20.994Z,5.25
2022-07-29T03:16:51.687Z,5.82
2022-07-29T03:19:20.175Z,4.38
2022-07-29T03:21:48.817Z,4.47
2022-07-29T03:24:35.680Z,7.28
2022-07-29T03:27:05.093Z,6.90
2022-07-29T03:29:34.726Z,5.05
2022-07-29T03:32:08.214Z,4.30
2022-07-29T03:34:37.881Z,5.88
2022-07-29T03:37:07.139Z,6.53
2022-07-29T03:39:40.728Z,7.97
2022-07-29T03:42:10.460Z,3.90
2022-07-29T03:44:40.062Z,9.07
2022-07-29T03:47:11.770Z,6.05
2022-07-29T03:49:41.579Z,6.75
2022-07-29T03:52:10.163Z,6.07
2022-07-29T03:54:38.343Z,4.93
2022-07-29T03:57:08.908Z,5.30
2022-07-29T03:59:37.488Z,5.47
2022-07-29T04:02:06.753Z,4.72
2022-07-29T04:04:37.181Z,8.65
2022-07-29T04:07:05.990Z,8.35
2022-07-29T04:09:34.185Z,10.25
2022-07-29T04:12:04.218Z,6.57
2022-07-29T04:14:33.284Z,7.45
2022-07-29T04:17:01.950Z,6.00
2022-07-29T04:19:29.840Z,5.80
2022-07-29T04:21:59.834Z,7.15
2022-07-29T04:24:28.357Z,5.60
2022-07-29T04:26:57.002Z,6.75
2022-07-29T04:29:24.958Z,6.13
2022-07-29T04:31:52.928Z,7.32
2022-07-29T04:34:21.223Z,5.60
2022-07-29T04:36:49.233Z,9.43
2022-07-29T04:39:22.919Z,6.95
2022-07-29T04:41:52.494Z,8.93
2022-07-29T04:44:28.401Z,9.23
2022-07-29T04:46:58.301Z,5.80
2022-07-29T04:49:26.418Z,6.20
2022-07-29T04:51:54.379Z,7.55
2022-07-29T04:54:23.734Z,6.20
2022-07-29T04:56:52.737Z,11.68
2022-07-29T04:59:20.789Z,6.88
2022-07-29T05:01:48.833Z,8.45
2022-07-29T05:04:17.355Z,10.13
2022-07-29T05:06:45.593Z,6.70
2022-07-29T05:09:13.507Z,6.82
2022-07-29T05:11:42.934Z,7.90
2022-07-29T05:14:10.947Z,5.57
2022-07-29T05:16:40.143Z,6.53
2022-07-29T05:19:13.699Z,10.10
2022-07-29T05:21:42.726Z,7.07
2022-07-29T05:24:10.634Z,7.57
2022-07-29T05:26:38.600Z,7.10
2022-07-29T05:29:08.177Z,6.40
2022-07-29T05:31:56.776Z,6.00
2022-07-29T05:34:26.022Z,5.13
2022-07-29T05:36:54.431Z,4.18
2022-07-29T05:39:22.688Z,5.43
2022-07-29T05:42:11.458Z,7.82
2022-07-29T05:44:41.375Z,7.50
2022-07-29T05:47:09.699Z,5.90
2022-07-29T05:49:37.671Z,6.50
2022-07-29T05:52:06.374Z,4.85
2022-07-29T05:54:34.331Z,3.90
2022-07-29T05:57:02.379Z,5.72
2022-07-29T05:59:30.767Z,4.47
2022-07-29T06:02:00.273Z,7.38
2022-07-29T06:04:28.402Z,7.63
2022-07-29T06:06:56.484Z,7.53
2022-07-29T06:09:24.862Z,5.20
2022-07-29T06:11:53.339Z,5.93
2022-07-29T06:14:21.364Z,5.28
2022-07-29T06:16:49.493Z,4.53
2022-07-29T06:19:19.158Z,5.57
2022-07-29T06:21:48.130Z,4.30
2022-07-29T06:24:17.779Z,5.00
2022-07-29T06:26:46.452Z,6.43
2022-07-29T06:29:14.616Z,6.80
2022-07-29T06:31:42.717Z,5.38
2022-07-29T06:34:10.848Z,6.78
2022-07-29T06:36:41.146Z,4.88
2022-07-29T06:39:11.712Z,5.88
2022-07-29T06:41:40.498Z,8.35
2022-07-29T06:44:08.630Z,6.18
2022-07-29T06:46:37.607Z,4.85
2022-07-29T06:49:05.999Z,6.97
2022-07-29T06:51:34.224Z,5.15
2022-07-29T06:54:05.998Z,5.80
2022-07-29T06:56:39.595Z,8.00
2022-07-29T06:59:09.505Z,6.35
2022-07-29T07:01:38.118Z,5.32
2022-07-29T07:04:06.279Z,7.88
2022-07-29T07:06:34.748Z,6.43
2022-07-29T07:09:05.513Z,3.83
2022-07-29T07:11:33.483Z,7.38
2022-07-29T07:14:03.783Z,5.38
2022-07-29T07:16:32.322Z,8.73
2022-07-29T07:19:00.461Z,4.70
2022-07-29T07:21:30.284Z,4.28
2022-07-29T07:23:58.893Z,7.75
2022-07-29T07:26:28.640Z,6.65
2022-07-29T07:28:56.567Z,6.57
2022-07-29T07:31:24.793Z,5.25
2022-07-29T07:33:54.452Z,9.10
2022-07-29T07:36:22.749Z,6.75
2022-07-29T07:38:51.425Z,6.55
2022-07-29T07:41:19.573Z,7.50
2022-07-29T07:43:49.008Z,6.57
2022-07-29T07:46:17.548Z,4.47
2022-07-29T07:48:45.967Z,5.07
2022-07-29T07:51:14.109Z,5.30
2022-07-29T07:53:42.172Z,4.53
2022-07-29T07:56:12.228Z,5.78
2022-07-29T07:58:41.201Z,8.13
2022-07-29T08:01:11.315Z,8.32
2022-07-29T08:03:39.932Z,6.38
2022-07-29T08:06:08.785Z,6.60
2022-07-29T08:08:37.304Z,6.53
2022-07-29T08:11:09.516Z,6.57
2022-07-29T08:13:39.176Z,4.93
2022-07-29T08:16:13.838Z,7.07
2022-07-29T08:18:44.492Z,3.97
2022-07-29T08:21:15.135Z,4.97
2022-07-29T08:23:54.354Z,4.75
2022-07-29T08:26:27.083Z,8.50
2022-07-29T08:28:55.045Z,6.93
2022-07-29T08:31:23.108Z,5.70
2022-07-29T08:33:52.931Z,7.03
2022-07-29T08:36:22.330Z,8.30
2022-07-29T08:38:50.659Z,6.68
2022-07-29T08:41:20.065Z,7.43
2022-07-29T08:43:48.490Z,7.90
2022-07-29T08:46:18.035Z,5.07
2022-07-29T08:48:46.532Z,6.32
2022-07-29T08:51:18.252Z,7.57
2022-07-29T08:53:48.551Z,7.07
2022-07-29T08:56:18.957Z,10.40
2022-07-29T08:58:50.661Z,4.47
2022-07-29T09:01:35.254Z,6.50
2022-07-29T09:04:08.125Z,10.63
2022-07-29T09:06:40.406Z,5.72
2022-07-29T09:09:10.375Z,6.90
2022-07-29T09:11:39.881Z,6.15
2022-07-29T09:14:08.016Z,7.32
2022-07-29T09:17:01.063Z,7.65
2022-07-29T09:19:31.004Z,7.82
2022-07-29T09:22:03.731Z,5.78
2022-07-29T09:24:43.410Z,6.50
2022-07-29T09:27:13.476Z,6.47
2022-07-29T09:29:41.801Z,7.72
2022-07-29T09:32:12.479Z,8.68
2022-07-29T09:34:40.607Z,6.57
2022-07-29T09:37:10.183Z,7.47
2022-07-29T09:39:45.151Z,7.00
2022-07-29T09:42:16.866Z,6.78
2022-07-29T09:44:46.728Z,9.05
2022-07-29T09:47:15.067Z,9.85
2022-07-29T09:49:59.160Z,8.73
2022-07-29T09:52:29.739Z,6.85
2022-07-29T09:55:07.378Z,9.18
2022-07-29T09:57:35.342Z,8.93
2022-07-29T10:00:09.155Z,7.65
2022-07-29T10:02:39.126Z,7.07
2022-07-29T10:05:17.676Z,6.43
2022-07-29T10:07:53.717Z,7.50
2022-07-29T10:10:24.930Z,8.18
2022-07-29T10:12:56.027Z,8.23
2022-07-29T10:15:26.009Z,8.52
2022-07-29T10:17:54.544Z,7.03
2022-07-29T10:20:23.388Z,7.35
2022-07-29T10:22:54.170Z,8.85
2022-07-29T10:25:22.950Z,8.20
2022-07-29T10:27:53.188Z,8.35
2022-07-29T10:30:22.643Z,9.18
2022-07-29T10:32:59.642Z,6.72
2022-07-29T10:35:50.581Z,7.55
2022-07-29T10:38:45.999Z,7.95
2022-07-29T10:41:47.654Z,10.52
2022-07-29T10:44:19.490Z,12.60
2022-07-29T10:46:52.627Z,5.95
2022-07-29T10:49:25.029Z,9.48
2022-07-29T10:51:59.117Z,9.20
2022-07-29T10:54:47.319Z,8.07
2022-07-29T10:57:54.534Z,13.30
2022-07-29T11:00:29.657Z,7.00
2022-07-29T11:02:59.433Z,6.43
2022-07-29T11:05:31.984Z,5.68
2022-07-29T11:08:26.277Z,7.93
2022-07-29T11:11:32.706Z,7.68
2022-07-29T11:14:04.736Z,7.97
2022-07-29T11:17:06.449Z,6.43
2022-07-29T11:19:40.094Z,6.07
2022-07-29T11:22:11.582Z,6.43
2022-07-29T11:24:50.292Z,6.50
2022-07-29T11:27:21.185Z,4.53
2022-07-29T11:29:56.359Z,5.57
2022-07-29T11:32:29.097Z,4.70
2022-07-29T11:35:17.269Z,7.95
2022-07-29T11:37:52.394Z,4.95
2022-07-29T11:40:23.876Z,3.92
2022-07-29T11:42:52.762Z,3.22
2022-07-29T11:45:42.759Z,5.85
2022-07-29T11:48:28.483Z,7.68
2022-07-29T11:50:59.962Z,4.10
2022-07-29T11:53:29.234Z,8.80
2022-07-29T11:56:02.473Z,5.50
2022-07-29T11:58:31.247Z,5.18
2022-07-29T12:01:04.782Z,5.10
2022-07-29T12:03:35.692Z,6.10
2022-07-29T12:06:07.927Z,4.13
2022-07-29T12:08:43.730Z,6.97
2022-07-29T12:11:20.783Z,8.25
2022-07-29T12:13:50.205Z,7.20
2022-07-29T12:16:25.143Z,8.75
2022-07-29T12:19:00.217Z,8.10
2022-07-29T12:21:29.338Z,7.30
2022-07-29T12:24:04.807Z,8.10
2022-07-29T12:26:37.365Z,5.57
2022-07-29T12:29:11.354Z,6.10
2022-07-29T12:31:45.839Z,6.50
2022-07-29T12:34:15.142Z,6.53
2022-07-29T12:36:44.259Z,7.22
2022-07-29T12:39:13.510Z,5.90
2022-07-29T12:41:41.574Z,4.95
2022-07-29T12:44:09.703Z,5.20
2022-07-29T12:46:37.965Z,5.30
2022-07-29T12:49:09.172Z,5.00
2022-07-29T12:51:40.577Z,5.05
2022-07-29T12:54:12.290Z,7.03
2022-07-29T12:56:43.641Z,5.30
2022-07-29T12:59:17.674Z,5.57
2022-07-29T13:01:50.146Z,4.90
2022-07-29T13:04:29.822Z,5.38
2022-07-29T13:07:02.365Z,5.03
2022-07-29T13:09:40.545Z,8.07
2022-07-29T13:12:11.247Z,7.50
2022-07-29T13:14:40.774Z,4.75
2022-07-29T13:17:10.360Z,6.32
2022-07-29T13:19:42.723Z,5.25
2022-07-29T13:22:12.015Z,5.03
2022-07-29T13:24:50.817Z,5.22
2022-07-29T13:27:19.798Z,6.32
2022-07-29T13:29:48.278Z,5.90
2022-07-29T13:32:16.540Z,5.85
2022-07-29T13:34:46.291Z,4.43
2022-07-29T13:37:14.667Z,14.00
2022-07-29T13:39:42.688Z,6.30
2022-07-29T13:42:21.295Z,5.93
2022-07-29T13:44:49.777Z,5.80
2022-07-29T13:47:18.047Z,9.73
2022-07-29T13:49:47.546Z,10.57
2022-07-29T13:52:16.535Z,5.13
2022-07-29T13:54:44.690Z,5.03
2022-07-29T13:57:13.887Z,6.47
2022-07-29T13:59:41.948Z,6.07
2022-07-29T14:02:10.966Z,4.93
2022-07-29T14:04:39.717Z,5.88
2022-07-29T14:07:09.562Z,5.45
2022-07-29T14:09:41.419Z,6.15
2022-07-29T14:12:10.594Z,6.38
2022-07-29T14:14:38.875Z,5.15
2022-07-29T14:17:08.242Z,7.07
2022-07-29T14:19:39.114Z,5.82
2022-07-29T14:22:10.870Z,7.75
2022-07-29T14:24:39.686Z,5.47
2022-07-29T14:27:09.622Z,5.57
2022-07-29T14:29:38.902Z,6.10
2022-07-29T14:32:07.982Z,6.45
2022-07-29T14:34:36.287Z,6.15
2022-07-29T14:37:06.616Z,6.78
2022-07-29T14:39:42.888Z,8.52
2022-07-29T14:42:12.892Z,5.85
2022-07-29T14:44:42.764Z,7.75
2022-07-29T14:47:11.635Z,8.60
2022-07-29T14:49:39.621Z,4.75
2022-07-29T14:52:07.578Z,5.28
2022-07-29T14:54:36.998Z,7.28
2022-07-29T14:57:05.117Z,5.40
2022-07-29T14:59:33.081Z,8.40
2022-07-29T15:02:01.745Z,4.47
2022-07-29T15:04:35.291Z,5.15
2022-07-29T15:07:04.422Z,5.55
2022-07-29T15:09:32.458Z,6.15
2022-07-29T15:12:06.176Z,7.15
2022-07-29T15:14:34.358Z,6.53
2022-07-29T15:17:02.374Z,8.57
2022-07-29T15:19:32.607Z,6.35
2022-07-29T15:22:01.301Z,6.32
2022-07-29T15:24:29.909Z,8.73
2022-07-29T15:26:57.847Z,6.38
2022-07-29T15:29:30.552Z,8.52
2022-07-29T15:31:59.178Z,6.38
2022-07-29T15:34:27.516Z,5.15
2022-07-29T15:36:55.450Z,7.88
2022-07-29T15:39:24.037Z,4.20
2022-07-29T15:41:52.346Z,4.63
2022-07-29T15:44:21.035Z,5.05
2022-07-29T15:47:07.069Z,5.78
2022-07-29T15:49:47.059Z,5.68
2022-07-29T15:52:19.000Z,6.57
2022-07-29T15:54:52.797Z,5.22
2022-07-29T15:57:20.861Z,7.70
2022-07-29T15:59:50.755Z,9.10
2022-07-29T16:02:20.358Z,10.25
2022-07-29T16:04:48.498Z,9.32
2022-07-29T16:07:16.665Z,7.18
2022-07-29T16:09:50.798Z,5.93
2022-07-29T16:12:21.128Z,6.55
2022-07-29T16:14:51.127Z,6.95
2022-07-29T16:17:22.439Z,6.30
2022-07-29T16:19:50.448Z,5.82
2022-07-29T16:22:18.477Z,5.65
2022-07-29T16:24:46.399Z,7.05
2022-07-29T16:27:14.449Z,4.88
2022-07-29T16:29:42.595Z,5.50
2022-07-29T16:32:10.641Z,6.95
2022-07-29T16:34:41.621Z,7.38
2022-07-29T16:37:09.550Z,4.22
2022-07-29T16:39:37.717Z,6.75
2022-07-29T16:42:05.833Z,6.72
2022-07-29T16:44:35.460Z,5.68
2022-07-29T16:47:04.141Z,7.40
2022-07-29T16:49:32.482Z,5.85
2022-07-29T16:52:02.126Z,6.40
2022-07-29T16:54:30.272Z,7.70
2022-07-29T16:57:00.752Z,9.90
2022-07-29T16:59:29.859Z,6.47
2022-07-29T17:02:02.732Z,8.65
2022-07-29T17:04:31.048Z,6.55
2022-07-29T17:07:00.000Z,4.22
2022-07-29T17:09:30.722Z,5.93
2022-07-29T17:11:59.624Z,8.88
2022-07-29T17:14:29.673Z,10.25
2022-07-29T17:17:02.170Z,8.93
2022-07-29T17:19:33.732Z,7.95
2022-07-29T17:22:14.310Z,8.10
2022-07-29T17:24:49.995Z,9.13
2022-07-29T17:27:18.665Z,8.88
2022-07-29T17:29:46.832Z,6.50
2022-07-29T17:32:17.870Z,5.88
2022-07-29T17:34:45.944Z,11.48
2022-07-29T17:37:14.044Z,8.20
2022-07-29T17:39:43.332Z,9.70
2022-07-29T17:42:14.782Z,7.10
2022-07-29T17:44:43.159Z,10.60
2022-07-29T17:47:15.924Z,10.55
2022-07-29T17:49:44.657Z,9.35
2022-07-29T17:52:12.946Z,9.85
2022-07-29T17:54:40.917Z,7.07
2022-07-29T17:57:08.945Z,9.40
2022-07-29T17:59:38.586Z,7.60
2022-07-29T18:02:06.761Z,6.90
2022-07-29T18:04:34.905Z,8.85
2022-07-29T18:07:02.963Z,8.77
2022-07-29T18:09:31.157Z,8.73
2022-07-29T18:11:59.123Z,9.15
2022-07-29T18:14:27.149Z,7.68
2022-07-29T18:16:56.727Z,10.13
2022-07-29T18:19:28.625Z,10.32
2022-07-29T18:22:03.169Z,9.27
2022-07-29T18:24:35.773Z,8.05
2022-07-29T18:27:03.816Z,9.82
2022-07-29T18:29:31.755Z,11.07
2022-07-29T18:32:02.062Z,10.23
2022-07-29T18:34:30.101Z,11.88
2022-07-29T18:37:05.531Z,10.45
2022-07-29T18:39:33.499Z,13.32
2022-07-29T18:42:01.799Z,10.60
2022-07-29T18:44:29.810Z,8.15
2022-07-29T18:46:58.159Z,10.32
2022-07-29T18:49:28.247Z,14.15
2022-07-29T18:51:57.975Z,9.70
2022-07-29T18:54:31.471Z,7.65
2022-07-29T18:56:59.712Z,11.52
2022-07-29T18:59:31.109Z,12.90
2022-07-29T19:01:59.130Z,11.13
2022-07-29T19:04:28.639Z,10.00
2022-07-29T19:06:59.276Z,12.02
2022-07-29T19:09:28.217Z,10.85
2022-07-29T19:11:58.002Z,7.95
2022-07-29T19:14:28.803Z,11.23
2022-07-29T19:16:57.057Z,10.13
2022-07-29T19:19:25.506Z,10.88
2022-07-29T19:21:57.979Z,14.05
2022-07-29T19:24:28.896Z,12.90
2022-07-29T19:26:57.408Z,13.90
2022-07-29T19:29:28.808Z,15.90
2022-07-29T19:31:56.735Z,16.15
2022-07-29T19:34:24.643Z,16.05
2022-07-29T19:36:56.128Z,18.98
2022-07-29T19:39:31.998Z,20.98
2022-07-29T19:42:03.698Z,23.08
2022-07-29T19:44:31.847Z,25.42
2022-07-29T19:47:00.705Z,24.45
2022-07-29T19:49:28.969Z,23.42
2022-07-29T19:51:58.420Z,24.75
2022-07-29T19:54:26.884Z,24.02
2022-07-29T19:56:54.763Z,24.20
2022-07-29T19:59:23.952Z,24.92
2022-07-29T20:01:52.691Z,24.55
2022-07-29T20:04:23.337Z,25.02
2022-07-29T20:07:01.458Z,25.40
2022-07-29T20:09:31.234Z,26.17
2022-07-29T20:11:59.493Z,25.58
2022-07-29T20:14:27.732Z,26.63
2022-07-29T20:16:55.682Z,25.45
2022-07-29T20:19:23.643Z,25.75
2022-07-29T20:21:54.645Z,26.27
2022-07-29T20:24:23.089Z,26.42
2022-07-29T20:26:55.459Z,25.88
2022-07-29T20:29:23.852Z,26.52
2022-07-29T20:31:56.462Z,25.63
2022-07-29T20:34:25.311Z,25.40
2022-07-29T20:36:53.309Z,25.35
2022-07-29T20:39:22.067Z,24.75
2022-07-29T20:41:50.553Z,24.50
2022-07-29T20:44:19.961Z,25.80
2022-07-29T20:46:48.945Z,26.02
2022-07-29T20:49:19.235Z,26.15
2022-07-29T20:51:47.257Z,25.15
2022-07-29T20:54:15.352Z,24.33
2022-07-29T20:56:43.477Z,24.13
2022-07-29T20:59:13.383Z,23.88
2022-07-29T21:01:42.873Z,24.38
2022-07-29T21:04:11.082Z,25.42
2022-07-29T21:06:41.472Z,25.40
2022-07-29T21:09:09.494Z,26.00
2022-07-29T21:11:44.622Z,26.45
2022-07-29T21:14:20.632Z,25.70
2022-07-29T21:16:50.270Z,25.85
2022-07-29T21:19:18.239Z,24.30
2022-07-29T21:21:46.228Z,25.95
2022-07-29T21:24:14.083Z,26.75
2022-07-29T21:26:47.272Z,25.60
2022-07-29T21:29:18.471Z,26.10
2022-07-29T21:31:46.525Z,25.10
2022-07-29T21:34:18.229Z,26.08
2022-07-29T21:36:48.777Z,25.98
2022-07-29T21:39:17.145Z,25.27
2022-07-29T21:41:45.059Z,26.30
2022-07-29T21:44:13.204Z,27.50
2022-07-29T21:46:43.462Z,28.08
2022-07-29T21:49:11.736Z,28.35
2022-07-29T21:51:41.194Z,28.30
2022-07-29T21:54:09.200Z,27.55
2022-07-29T21:56:37.190Z,27.27
2022-07-29T21:59:05.406Z,25.67
2022-07-29T22:01:39.330Z,26.38
2022-07-29T22:04:07.841Z,26.30
2022-07-29T22:06:47.364Z,26.17
2022-07-29T22:09:16.740Z,24.98
2022-07-29T22:11:44.709Z,25.40
2022-07-29T22:14:14.932Z,25.90
2022-07-29T22:16:43.134Z,24.05
2022-07-29T22:19:11.210Z,25.20
2022-07-29T22:21:39.215Z,24.80
2022-07-29T22:24:07.913Z,25.88
2022-07-29T22:26:39.472Z,27.08
2022-07-29T22:29:08.088Z,25.90
2022-07-29T22:31:36.104Z,24.95
2022-07-29T22:34:04.517Z,26.67
2022-07-29T22:36:32.715Z,24.85
2022-07-29T22:39:00.716Z,24.50
2022-07-29T22:41:28.813Z,24.63
2022-07-29T22:43:58.161Z,24.63
2022-07-29T22:46:26.228Z,24.77
2022-07-29T22:48:54.265Z,23.98
2022-07-29T22:51:22.304Z,25.40
2022-07-29T22:53:50.288Z,26.33
2022-07-29T22:56:18.848Z,25.65
2022-07-29T22:58:46.749Z,24.92
2022-07-29T23:01:16.373Z,24.10
2022-07-29T23:04:04.531Z,24.35
2022-07-29T23:06:32.656Z,23.75
2022-07-29T23:09:00.728Z,25.15
2022-07-29T23:11:28.729Z,24.25
2022-07-29T23:13:56.764Z,26.50
2022-07-29T23:16:27.051Z,25.08
2022-07-29T23:18:55.271Z,23.98
2022-07-29T23:21:23.332Z,25.30
2022-07-29T23:23:51.431Z,26.58
2022-07-29T23:26:19.703Z,26.88
2022-07-29T23:28:47.763Z,32.40
2022-07-29T23:31:15.794Z,37.25
2022-07-29T23:33:45.165Z,52.88
2022-07-29T23:36:13.265Z,40.65
2022-07-29T23:38:41.679Z,29.52
2022-07-29T23:41:10.172Z,26.83
2022-07-29T23:43:38.631Z,26.27
2022-07-29T23:46:06.672Z,26.35
2022-07-29T23:48:35.182Z,26.17
2022-07-29T23:51:04.616Z,24.75
2022-07-29T23:53:32.594Z,25.83
2022-07-29T23:56:00.579Z,24.90
2022-07-29T23:58:28.703Z,24.08
